Time;durP1;ratioP1;P1;durP2;ratioP2;P2;SDS_P1;SDS_P2;PMS_P1;PMS_P2;Temp;Humidity;BMP_temperature;BMP_pressure;BME280_temperature;BME280_humidity;BME280_pressure;Samples;Min_cycle;Max_cycle;Signal;HPM_P1;HPM_P2
2020/12/30 00:01:34;;;;;;;13.10;3.93;;;;;;;;;;5052535;28;20029;-57
2020/12/30 00:04:01;;;;;;;4.10;2.57;;;;;;;;;;5052480;28;20029;-57
2020/12/30 00:06:28;;;;;;;25.80;7.63;;;;;;;;;;5052312;28;20032;-57
2020/12/30 00:08:54;;;;;;;18.03;4.00;;;;;;;;;;5052375;28;20029;-57
2020/12/30 00:11:21;;;;;;;16.23;6.47;;;;;;;;;;5052322;28;20494;-57
2020/12/30 00:13:48;;;;;;;6.37;3.37;;;;;;;;;;5052412;28;20029;-57
2020/12/30 00:16:15;;;;;;;5.23;2.90;;;;;;;;;;5052503;28;20076;-57
2020/12/30 00:18:41;;;;;;;12.93;2.87;;;;;;;;;;5052213;28;20033;-57
2020/12/30 00:21:10;;;;;;;8.60;3.73;;;;;;;;;;5052313;28;20058;-57
2020/12/30 00:23:36;;;;;;;16.43;4.17;;;;;;;;;;5052185;28;20037;-56
2020/12/30 00:26:03;;;;;;;10.17;3.40;;;;;;;;;;5052257;28;20029;-57
2020/12/30 00:28:30;;;;;;;17.10;4.07;;;;;;;;;;5052144;28;20184;-57
2020/12/30 00:30:56;;;;;;;14.63;4.10;;;;;;;;;;5052106;28;20037;-56
2020/12/30 00:33:23;;;;;;;12.67;4.23;;;;;;;;;;5052255;28;20044;-56
2020/12/30 00:35:50;;;;;;;9.90;3.70;;;;;;;;;;5052110;28;20542;-57
2020/12/30 00:38:17;;;;;;;18.13;4.07;;;;;;;;;;5052148;28;20361;-57
2020/12/30 00:40:43;;;;;;;10.70;3.43;;;;;;;;;;5055128;28;20379;-56
2020/12/30 00:43:10;;;;;;;7.13;3.13;;;;;;;;;;5055863;28;20537;-56
2020/12/30 00:45:37;;;;;;;9.73;3.10;;;;;;;;;;5056432;28;20033;-56
2020/12/30 00:48:04;;;;;;;11.63;3.40;;;;;;;;;;5055501;28;20071;-56
2020/12/30 00:50:30;;;;;;;13.87;3.20;;;;;;;;;;5055527;28;20392;-56
2020/12/30 00:52:57;;;;;;;13.17;3.80;;;;;;;;;;5055692;28;20020;-56
2020/12/30 00:55:24;;;;;;;8.93;4.23;;;;;;;;;;5055506;28;20125;-56
2020/12/30 00:57:51;;;;;;;17.40;4.27;;;;;;;;;;5055348;28;20025;-56
2020/12/30 01:00:17;;;;;;;8.73;3.03;;;;;;;;;;5055338;28;20035;-56
2020/12/30 01:02:44;;;;;;;7.33;3.30;;;;;;;;;;5055426;28;20017;-56
2020/12/30 01:05:11;;;;;;;12.43;4.20;;;;;;;;;;5055311;28;20032;-56
2020/12/30 01:07:38;;;;;;;13.50;4.07;;;;;;;;;;5055396;28;20032;-56
2020/12/30 01:10:06;;;;;;;11.10;3.90;;;;;;;;;;5055076;28;20086;-56
2020/12/30 01:12:32;;;;;;;12.70;5.20;;;;;;;;;;5055126;28;20099;-56
2020/12/30 01:14:59;;;;;;;19.20;4.60;;;;;;;;;;5055164;28;20051;-56
2020/12/30 01:17:29;;;;;;;10.73;4.47;;;;;;;;;;5055220;28;20651;-56
2020/12/30 01:19:56;;;;;;;20.13;5.27;;;;;;;;;;5055029;28;20437;-56
2020/12/30 01:22:22;;;;;;;17.77;5.40;;;;;;;;;;5037157;28;20499;-56
2020/12/30 01:24:49;;;;;;;13.03;4.10;;;;;;;;;;5055098;28;20108;-56
2020/12/30 01:27:16;;;;;;;17.97;4.70;;;;;;;;;;5054841;28;20032;-56
2020/12/30 01:29:43;;;;;;;12.73;4.93;;;;;;;;;;5054717;28;20044;-56
2020/12/30 01:32:09;;;;;;;9.47;4.17;;;;;;;;;;5054728;28;20048;-56
2020/12/30 01:34:36;;;;;;;11.63;4.00;;;;;;;;;;5054740;28;20390;-56
2020/12/30 01:37:03;;;;;;;16.83;5.60;;;;;;;;;;5054774;28;20020;-56
2020/12/30 01:39:30;;;;;;;11.30;4.67;;;;;;;;;;5054718;28;20029;-56
2020/12/30 01:41:59;;;;;;;14.73;5.30;;;;;;;;;;5054717;28;20025;-56
2020/12/30 01:44:26;;;;;;;9.03;4.07;;;;;;;;;;5054631;28;20052;-56
2020/12/30 01:46:53;;;;;;;12.77;4.40;;;;;;;;;;5054481;28;20049;-56
2020/12/30 01:49:24;;;;;;;10.30;4.07;;;;;;;;;;5054334;28;20079;-56
2020/12/30 01:51:52;;;;;;;13.33;4.17;;;;;;;;;;5053696;28;20447;-56
2020/12/30 01:54:19;;;;;;;7.23;3.73;;;;;;;;;;5054560;28;20045;-57
2020/12/30 01:56:53;;;;;;;7.57;3.77;;;;;;;;;;5054495;28;20033;-56
2020/12/30 01:59:20;;;;;;;12.33;4.23;;;;;;;;;;5054306;28;20029;-56
2020/12/30 02:02:05;;;;;;;19.37;4.90;;;;;;;;;;5054270;28;20036;-56
2020/12/30 02:04:44;;;;;;;14.18;6.05;;;;;;;;;;5054394;28;20387;-56
2020/12/30 02:07:11;;;;;;;8.07;4.60;;;;;;;;;;5054116;28;20025;-56
2020/12/30 02:09:40;;;;;;;6.73;3.00;;;;;;;;;;5054013;28;20043;-56
2020/12/30 02:12:07;;;;;;;19.03;5.03;;;;;;;;;;5054057;28;20022;-56
2020/12/30 02:14:34;;;;;;;14.03;5.33;;;;;;;;;;5054148;28;20025;-56
2020/12/30 02:17:01;;;;;;;12.80;4.80;;;;;;;;;;5053941;28;20194;-56
2020/12/30 02:19:27;;;;;;;11.77;4.47;;;;;;;;;;5053910;28;20033;-56
2020/12/30 02:21:56;;;;;;;11.20;6.00;;;;;;;;;;5053836;28;20036;-57
2020/12/30 02:24:26;;;;;;;8.73;4.10;;;;;;;;;;5053816;28;20024;-56
2020/12/30 02:26:53;;;;;;;7.63;3.83;;;;;;;;;;5053669;28;20108;-57
2020/12/30 02:29:20;;;;;;;11.67;4.53;;;;;;;;;;5053683;28;20067;-56
2020/12/30 02:31:47;;;;;;;25.03;4.63;;;;;;;;;;5053674;28;20036;-56
2020/12/30 02:34:14;;;;;;;18.30;4.57;;;;;;;;;;5053801;28;20025;-56
2020/12/30 02:36:40;;;;;;;13.20;4.60;;;;;;;;;;5053502;28;20025;-56
2020/12/30 02:39:07;;;;;;;10.93;5.07;;;;;;;;;;5053482;28;20032;-56
2020/12/30 02:41:34;;;;;;;38.80;6.83;;;;;;;;;;5053480;28;20150;-56
2020/12/30 02:44:02;;;;;;;19.07;5.90;;;;;;;;;;5053467;28;20063;-56
2020/12/30 02:46:29;;;;;;;8.93;5.07;;;;;;;;;;5053354;28;20025;-56
2020/12/30 02:48:56;;;;;;;12.50;5.47;;;;;;;;;;5053312;28;20024;-56
2020/12/30 02:51:23;;;;;;;14.77;4.67;;;;;;;;;;5053327;28;20031;-56
2020/12/30 02:53:49;;;;;;;6.70;3.53;;;;;;;;;;5053470;28;20130;-57
2020/12/30 02:56:20;;;;;;;10.23;3.77;;;;;;;;;;5053320;28;20029;-55
2020/12/30 02:58:49;;;;;;;9.50;3.47;;;;;;;;;;5053310;28;20023;-55
2020/12/30 03:01:17;;;;;;;10.03;3.90;;;;;;;;;;5053100;28;20383;-55
2020/12/30 03:03:44;;;;;;;10.17;4.33;;;;;;;;;;5052216;28;20025;-55
2020/12/30 03:06:11;;;;;;;7.53;3.63;;;;;;;;;;5053068;28;20375;-55
2020/12/30 03:08:38;;;;;;;10.20;4.33;;;;;;;;;;5053041;28;20025;-55
2020/12/30 03:11:08;;;;;;;12.67;4.57;;;;;;;;;;5052903;28;20095;-55
2020/12/30 03:13:35;;;;;;;8.10;3.83;;;;;;;;;;5053058;28;20021;-55
2020/12/30 03:16:02;;;;;;;12.80;4.13;;;;;;;;;;5052865;28;20033;-55
2020/12/30 03:18:28;;;;;;;7.90;3.50;;;;;;;;;;5053022;28;20021;-55
2020/12/30 03:20:55;;;;;;;10.40;4.63;;;;;;;;;;5052826;28;20037;-55
2020/12/30 03:23:22;;;;;;;10.70;4.73;;;;;;;;;;5052890;28;20021;-55
2020/12/30 03:25:49;;;;;;;8.47;4.50;;;;;;;;;;5052771;28;20082;-55
2020/12/30 03:28:15;;;;;;;9.03;4.57;;;;;;;;;;5052938;28;20023;-55
2020/12/30 03:30:42;;;;;;;12.00;4.97;;;;;;;;;;5052763;28;20041;-55
2020/12/30 03:33:09;;;;;;;8.60;4.90;;;;;;;;;;5052855;28;20021;-55
2020/12/30 03:35:36;;;;;;;10.43;5.67;;;;;;;;;;5052975;28;20456;-55
2020/12/30 03:38:03;;;;;;;10.57;5.77;;;;;;;;;;5052711;28;20154;-55
2020/12/30 03:40:30;;;;;;;8.73;4.87;;;;;;;;;;5052692;28;20104;-55
2020/12/30 03:42:57;;;;;;;7.93;4.60;;;;;;;;;;5052569;28;20040;-55
2020/12/30 03:45:24;;;;;;;11.87;5.53;;;;;;;;;;5052558;28;20048;-55
2020/12/30 03:47:50;;;;;;;13.53;4.80;;;;;;;;;;5034583;28;20495;-55
2020/12/30 03:50:17;;;;;;;9.03;4.00;;;;;;;;;;5052456;28;20060;-55
2020/12/30 03:52:50;;;;;;;13.03;5.23;;;;;;;;;;5053050;28;20047;-55
2020/12/30 03:55:17;;;;;;;12.43;4.27;;;;;;;;;;5052501;28;20060;-55
2020/12/30 03:57:44;;;;;;;10.90;4.00;;;;;;;;;;5052412;28;20246;-55
2020/12/30 04:00:11;;;;;;;8.10;4.20;;;;;;;;;;5052577;28;20250;-55
2020/12/30 04:02:38;;;;;;;10.00;4.43;;;;;;;;;;5052356;28;20277;-55
2020/12/30 04:05:04;;;;;;;9.67;3.70;;;;;;;;;;5052366;28;20262;-55
2020/12/30 04:07:31;;;;;;;6.77;3.50;;;;;;;;;;5052526;28;20249;-55
2020/12/30 04:09:58;;;;;;;8.73;4.13;;;;;;;;;;5052291;28;20332;-55
2020/12/30 04:12:25;;;;;;;11.93;4.00;;;;;;;;;;5052366;28;20254;-55
2020/12/30 04:14:51;;;;;;;10.77;4.50;;;;;;;;;;5054189;28;20295;-55
2020/12/30 04:17:18;;;;;;;9.53;4.50;;;;;;;;;;5056212;28;20716;-55
2020/12/30 04:19:45;;;;;;;7.20;4.13;;;;;;;;;;5056181;28;20387;-55
2020/12/30 04:22:12;;;;;;;8.00;4.03;;;;;;;;;;5056130;28;20335;-55
2020/12/30 04:24:39;;;;;;;6.47;3.57;;;;;;;;;;5056098;28;20246;-55
2020/12/30 04:27:05;;;;;;;11.70;3.43;;;;;;;;;;5055991;28;20254;-55
2020/12/30 04:29:32;;;;;;;8.83;3.73;;;;;;;;;;5055939;28;20280;-55
2020/12/30 04:31:59;;;;;;;12.13;3.87;;;;;;;;;;5056085;28;20254;-55
2020/12/30 04:34:26;;;;;;;6.13;3.53;;;;;;;;;;5055987;28;20247;-55
2020/12/30 04:36:52;;;;;;;11.50;4.10;;;;;;;;;;5055884;28;20308;-55
2020/12/30 04:39:19;;;;;;;8.43;3.67;;;;;;;;;;5055880;28;20302;-55
2020/12/30 04:41:46;;;;;;;5.90;3.80;;;;;;;;;;5055866;28;20250;-55
2020/12/30 04:44:16;;;;;;;11.67;4.60;;;;;;;;;;5055692;28;20253;-55
2020/12/30 04:46:49;;;;;;;7.17;4.07;;;;;;;;;;5055737;28;20756;-55
2020/12/30 04:49:16;;;;;;;9.07;4.10;;;;;;;;;;5055557;28;20270;-55
2020/12/30 04:51:44;;;;;;;7.53;3.73;;;;;;;;;;5055506;28;20285;-55
2020/12/30 04:54:11;;;;;;;6.80;4.07;;;;;;;;;;5055595;28;20287;-55
2020/12/30 04:56:48;;;;;;;10.77;4.30;;;;;;;;;;5055582;28;20278;-55
2020/12/30 04:59:16;;;;;;;9.67;3.50;;;;;;;;;;5055400;28;20261;-55
2020/12/30 05:01:55;;;;;;;10.43;3.50;;;;;;;;;;5055417;28;20582;-55
2020/12/30 05:04:21;;;;;;;7.23;4.03;;;;;;;;;;5055314;28;20319;-55
2020/12/30 05:06:50;;;;;;;22.03;7.20;;;;;;;;;;5055290;28;20264;-55
2020/12/30 05:09:20;;;;;;;8.63;3.40;;;;;;;;;;5055485;28;20277;-55
2020/12/30 05:11:48;;;;;;;8.30;3.40;;;;;;;;;;5055296;28;20340;-55
2020/12/30 05:14:14;;;;;;;11.00;3.83;;;;;;;;;;5055176;28;20639;-55
2020/12/30 05:16:41;;;;;;;8.60;4.70;;;;;;;;;;5055118;28;20263;-55
2020/12/30 05:19:08;;;;;;;6.63;3.40;;;;;;;;;;5055257;28;20329;-55
2020/12/30 05:21:35;;;;;;;8.27;3.90;;;;;;;;;;5055425;28;20254;-55
2020/12/30 05:24:04;;;;;;;10.23;4.53;;;;;;;;;;5055099;28;20343;-57
2020/12/30 05:26:32;;;;;;;7.37;3.73;;;;;;;;;;5053823;28;20264;-57
2020/12/30 05:29:00;;;;;;;7.13;3.57;;;;;;;;;;5054722;28;20325;-57
2020/12/30 05:31:27;;;;;;;7.83;3.93;;;;;;;;;;5054908;28;20266;-57
2020/12/30 05:33:53;;;;;;;10.17;3.67;;;;;;;;;;5054760;28;20260;-54
2020/12/30 05:36:20;;;;;;;6.87;3.73;;;;;;;;;;5054778;28;20296;-55
2020/12/30 05:38:47;;;;;;;6.50;3.53;;;;;;;;;;5054721;28;20316;-54
2020/12/30 05:41:21;;;;;;;6.90;3.47;;;;;;;;;;5054585;28;20678;-54
2020/12/30 05:43:47;;;;;;;8.10;3.53;;;;;;;;;;5054296;28;20257;-54
2020/12/30 05:46:27;;;;;;;14.17;3.73;;;;;;;;;;5054544;28;20262;-54
2020/12/30 05:48:54;;;;;;;6.13;3.20;;;;;;;;;;5054485;28;20289;-54
2020/12/30 05:51:28;;;;;;;7.43;4.27;;;;;;;;;;5054527;28;20339;-54
2020/12/30 05:54:11;;;;;;;9.90;4.70;;;;;;;;;;5054569;28;20302;-54
2020/12/30 05:56:38;;;;;;;10.63;4.53;;;;;;;;;;5054381;28;20308;-54
2020/12/30 05:59:06;;;;;;;10.47;3.87;;;;;;;;;;5054256;28;20238;-55
2020/12/30 06:01:36;;;;;;;6.33;3.60;;;;;;;;;;5054192;28;20304;-54
2020/12/30 06:04:20;;;;;;;9.80;3.60;;;;;;;;;;5054223;28;20662;-54
2020/12/30 06:06:47;;;;;;;10.30;3.87;;;;;;;;;;5053871;28;20273;-54
2020/12/30 06:09:24;;;;;;;5.70;3.10;;;;;;;;;;5054048;28;20365;-54
2020/12/30 06:11:57;;;;;;;7.37;3.90;;;;;;;;;;5054119;28;20329;-54
2020/12/30 06:14:23;;;;;;;9.07;4.03;;;;;;;;;;5054081;28;20254;-54
2020/12/30 06:16:50;;;;;;;8.40;3.30;;;;;;;;;;5053935;28;20261;-54
2020/12/30 06:19:17;;;;;;;6.40;3.50;;;;;;;;;;5054018;28;20282;-54
2020/12/30 06:21:47;;;;;;;10.33;3.47;;;;;;;;;;5053887;28;20254;-54
2020/12/30 06:24:14;;;;;;;6.73;3.40;;;;;;;;;;5053858;28;20258;-54
2020/12/30 06:26:42;;;;;;;7.97;4.30;;;;;;;;;;5053773;28;20641;-54
2020/12/30 06:29:13;;;;;;;5.13;3.50;;;;;;;;;;5053786;28;20320;-54
2020/12/30 06:31:44;;;;;;;5.97;3.10;;;;;;;;;;5053846;28;20269;-54
2020/12/30 06:34:11;;;;;;;13.00;4.40;;;;;;;;;;5053716;28;20249;-54
2020/12/30 06:36:38;;;;;;;7.30;3.50;;;;;;;;;;5053857;28;20254;-54
2020/12/30 06:39:17;;;;;;;5.50;3.33;;;;;;;;;;5053638;28;20704;-54
2020/12/30 06:41:58;;;;;;;6.70;3.70;;;;;;;;;;5053488;28;20345;-54
2020/12/30 06:44:40;;;;;;;8.13;4.23;;;;;;;;;;5053608;28;20265;-54
2020/12/30 06:47:09;;;;;;;9.33;4.30;;;;;;;;;;5053314;28;20258;-54
2020/12/30 06:49:36;;;;;;;9.40;4.03;;;;;;;;;;5053233;28;20314;-54
2020/12/30 06:52:03;;;;;;;9.90;4.90;;;;;;;;;;5053357;28;20278;-54
2020/12/30 06:54:49;;;;;;;9.07;4.43;;;;;;;;;;5053427;28;20273;-55
2020/12/30 06:57:36;;;;;;;9.25;3.70;;;;;;;;;;5053253;28;20345;-54
2020/12/30 07:00:22;;;;;;;8.17;4.20;;;;;;;;;;5053208;28;20025;-54
2020/12/30 07:03:08;;;;;;;6.67;3.73;;;;;;;;;;5042941;28;20346;-54
2020/12/30 07:05:34;;;;;;;11.77;4.00;;;;;;;;;;5053029;28;20254;-54
2020/12/30 07:08:01;;;;;;;7.27;4.20;;;;;;;;;;5053060;28;20388;-54
2020/12/30 07:10:28;;;;;;;9.17;4.00;;;;;;;;;;5053089;28;20798;-54
2020/12/30 07:12:55;;;;;;;7.47;4.10;;;;;;;;;;5052993;28;20782;-54
2020/12/30 07:15:27;;;;;;;7.63;4.00;;;;;;;;;;5052903;28;20598;-54
2020/12/30 07:17:57;;;;;;;10.30;4.60;;;;;;;;;;5052890;28;20324;-54
2020/12/30 07:20:24;;;;;;;8.20;4.40;;;;;;;;;;5052857;28;20305;-54
2020/12/30 07:22:51;;;;;;;8.00;4.40;;;;;;;;;;5053033;28;20412;-54
2020/12/30 07:25:18;;;;;;;9.13;4.70;;;;;;;;;;5052790;28;20609;-54
2020/12/30 07:27:45;;;;;;;8.07;4.40;;;;;;;;;;5052748;28;20253;-54
2020/12/30 07:30:12;;;;;;;7.97;3.83;;;;;;;;;;5052769;28;20289;-54
2020/12/30 07:32:39;;;;;;;9.53;4.70;;;;;;;;;;5052749;28;20261;-54
2020/12/30 07:35:07;;;;;;;7.10;3.70;;;;;;;;;;5052670;28;20764;-54
2020/12/30 07:37:34;;;;;;;6.80;4.33;;;;;;;;;;5053046;28;20811;-54
2020/12/30 07:40:01;;;;;;;10.53;5.13;;;;;;;;;;5052739;28;20339;-54
2020/12/30 07:42:27;;;;;;;9.67;4.17;;;;;;;;;;5052650;28;20257;-54
2020/12/30 07:44:55;;;;;;;7.20;4.40;;;;;;;;;;5052631;28;20289;-54
2020/12/30 07:47:23;;;;;;;6.87;3.67;;;;;;;;;;5052700;28;20251;-54
2020/12/30 07:49:50;;;;;;;6.73;4.30;;;;;;;;;;5054373;28;20290;-54
2020/12/30 07:52:17;;;;;;;7.40;3.63;;;;;;;;;;5056859;28;20273;-54
2020/12/30 07:54:43;;;;;;;8.37;4.80;;;;;;;;;;5056716;28;20289;-54
2020/12/30 07:57:11;;;;;;;7.70;4.20;;;;;;;;;;5056824;28;20321;-54
2020/12/30 07:59:41;;;;;;;9.70;3.97;;;;;;;;;;5056551;28;20807;-54
2020/12/30 08:02:08;;;;;;;5.90;3.50;;;;;;;;;;5056535;28;20246;-54
2020/12/30 08:04:36;;;;;;;8.77;4.00;;;;;;;;;;5056546;28;20294;-54
2020/12/30 08:07:04;;;;;;;9.47;4.23;;;;;;;;;;5056496;28;20286;-54
2020/12/30 08:09:31;;;;;;;7.93;4.23;;;;;;;;;;5056479;28;20282;-54
2020/12/30 08:12:00;;;;;;;7.20;3.73;;;;;;;;;;5056650;28;20262;-54
2020/12/30 08:14:29;;;;;;;7.23;4.10;;;;;;;;;;5056350;28;20278;-54
2020/12/30 08:17:06;;;;;;;11.67;4.77;;;;;;;;;;5056197;28;20254;-54
2020/12/30 08:19:34;;;;;;;10.27;5.20;;;;;;;;;;5056253;28;20604;-54
2020/12/30 08:22:03;;;;;;;7.33;4.47;;;;;;;;;;5056227;28;20263;-54
2020/12/30 08:24:31;;;;;;;6.87;3.77;;;;;;;;;;5056174;28;20257;-54
2020/12/30 08:26:58;;;;;;;8.30;3.40;;;;;;;;;;5056150;28;20257;-54
2020/12/30 08:29:29;;;;;;;9.83;4.17;;;;;;;;;;5056091;28;20278;-54
2020/12/30 08:31:57;;;;;;;6.80;3.97;;;;;;;;;;5055973;28;20733;-54
2020/12/30 08:34:28;;;;;;;7.63;4.10;;;;;;;;;;5056062;28;20246;-54
2020/12/30 08:37:04;;;;;;;8.17;4.30;;;;;;;;;;5055939;28;20329;-54
2020/12/30 08:39:31;;;;;;;8.70;4.57;;;;;;;;;;5055953;28;20337;-54
2020/12/30 08:41:59;;;;;;;12.93;4.70;;;;;;;;;;5055802;28;20254;-54
2020/12/30 08:44:26;;;;;;;9.97;4.30;;;;;;;;;;5055886;28;20821;-54
2020/12/30 08:46:57;;;;;;;6.10;3.67;;;;;;;;;;5055658;28;20586;-54
2020/12/30 08:49:25;;;;;;;7.27;4.20;;;;;;;;;;5055590;28;20782;-54
2020/12/30 08:51:53;;;;;;;4.50;3.17;;;;;;;;;;5055697;28;20775;-54
2020/12/30 08:54:20;;;;;;;7.20;3.50;;;;;;;;;;5055663;28;20684;-54
2020/12/30 08:56:47;;;;;;;5.93;3.33;;;;;;;;;;5055581;28;20261;-54
2020/12/30 08:59:23;;;;;;;6.03;4.00;;;;;;;;;;5055464;28;20337;-54
2020/12/30 09:01:50;;;;;;;7.77;4.03;;;;;;;;;;5055402;28;20262;-54
2020/12/30 09:04:17;;;;;;;5.93;3.53;;;;;;;;;;5055753;28;20242;-54
2020/12/30 09:06:50;;;;;;;12.30;4.00;;;;;;;;;;5055398;28;20258;-54
2020/12/30 09:09:20;;;;;;;7.77;3.50;;;;;;;;;;5055277;28;20261;-54
2020/12/30 09:11:48;;;;;;;6.77;3.50;;;;;;;;;;5055242;28;20258;-54
2020/12/30 09:14:19;;;;;;;6.07;3.30;;;;;;;;;;5055273;28;20250;-54
2020/12/30 09:17:00;;;;;;;6.10;3.97;;;;;;;;;;5055029;28;20590;-54
2020/12/30 09:19:27;;;;;;;6.63;3.67;;;;;;;;;;5055041;28;20273;-54
2020/12/30 09:22:06;;;;;;;9.47;4.40;;;;;;;;;;5054987;28;20278;-54
2020/12/30 09:24:36;;;;;;;6.97;4.43;;;;;;;;;;5055070;28;20273;-54
2020/12/30 09:27:22;;;;;;;7.47;3.50;;;;;;;;;;5054857;28;20246;-54
2020/12/30 09:30:08;;;;;;;6.70;3.60;;;;;;;;;;5055002;28;20297;-54
2020/12/30 09:32:35;;;;;;;7.40;3.60;;;;;;;;;;5054893;28;20250;-54
2020/12/30 09:35:02;;;;;;;6.77;3.10;;;;;;;;;;5054922;28;20273;-54
2020/12/30 09:37:29;;;;;;;9.27;4.03;;;;;;;;;;5054755;28;20329;-54
2020/12/30 09:40:05;;;;;;;6.93;4.30;;;;;;;;;;5054695;28;20345;-54
2020/12/30 09:42:32;;;;;;;7.90;4.27;;;;;;;;;;5054628;28;20793;-54
2020/12/30 09:44:58;;;;;;;8.83;4.53;;;;;;;;;;5054568;28;20254;-54
2020/12/30 09:47:25;;;;;;;7.90;4.10;;;;;;;;;;5054454;28;20337;-54
2020/12/30 09:49:52;;;;;;;7.27;4.30;;;;;;;;;;5054370;28;20769;-54
2020/12/30 09:52:19;;;;;;;6.27;3.60;;;;;;;;;;5054504;28;20328;-54
2020/12/30 09:54:46;;;;;;;8.67;4.77;;;;;;;;;;5054581;28;20366;-54
2020/12/30 09:57:12;;;;;;;8.13;4.90;;;;;;;;;;5054339;28;20315;-54
2020/12/30 09:59:39;;;;;;;8.47;3.70;;;;;;;;;;5054529;28;20265;-54
2020/12/30 10:02:06;;;;;;;7.30;4.47;;;;;;;;;;5054283;28;20625;-54
2020/12/30 10:04:33;;;;;;;10.30;4.70;;;;;;;;;;5054245;28;20250;-54
2020/12/30 10:07:00;;;;;;;7.43;4.63;;;;;;;;;;5054179;28;20262;-54
2020/12/30 10:09:26;;;;;;;8.63;4.77;;;;;;;;;;5054384;28;20289;-54
2020/12/30 10:11:53;;;;;;;6.67;3.93;;;;;;;;;;5053966;28;20272;-54
2020/12/30 10:14:21;;;;;;;8.63;4.23;;;;;;;;;;5054085;28;20253;-54
2020/12/30 10:16:50;;;;;;;7.33;4.73;;;;;;;;;;5053920;28;20277;-54
2020/12/30 10:19:17;;;;;;;7.37;4.80;;;;;;;;;;5053951;28;20658;-54
2020/12/30 10:21:44;;;;;;;7.53;4.93;;;;;;;;;;5053851;28;20401;-54
2020/12/30 10:24:11;;;;;;;10.57;4.63;;;;;;;;;;5053853;28;20582;-54
2020/12/30 10:26:38;;;;;;;11.33;4.93;;;;;;;;;;5053803;28;20243;-54
2020/12/30 10:29:04;;;;;;;8.70;4.40;;;;;;;;;;5053868;28;20247;-54
2020/12/30 10:31:31;;;;;;;7.67;4.37;;;;;;;;;;5053796;28;20772;-54
2020/12/30 10:33:58;;;;;;;6.93;4.17;;;;;;;;;;5053702;28;20254;-54
2020/12/30 10:36:32;;;;;;;5.93;4.13;;;;;;;;;;5053586;28;20254;-54
2020/12/30 10:39:01;;;;;;;7.73;4.10;;;;;;;;;;5053559;28;20807;-54
2020/12/30 10:41:29;;;;;;;6.70;4.57;;;;;;;;;;5053633;28;20254;-54
2020/12/30 10:43:56;;;;;;;5.80;4.20;;;;;;;;;;5053577;28;20303;-54
2020/12/30 10:46:23;;;;;;;8.70;4.50;;;;;;;;;;5053395;28;20266;-54
2020/12/30 10:48:50;;;;;;;7.63;4.77;;;;;;;;;;5053371;28;20609;-54
2020/12/30 10:51:17;;;;;;;9.13;4.27;;;;;;;;;;5035464;28;20851;-54
2020/12/30 10:53:44;;;;;;;11.03;5.87;;;;;;;;;;5053400;28;20261;-54
2020/12/30 10:56:12;;;;;;;9.20;5.03;;;;;;;;;;5053357;28;20678;-54
2020/12/30 10:58:39;;;;;;;7.70;4.90;;;;;;;;;;5053226;28;20253;-54
2020/12/30 11:01:12;;;;;;;8.80;4.63;;;;;;;;;;5053157;28;20262;-54
2020/12/30 11:03:39;;;;;;;8.27;4.47;;;;;;;;;;5053310;28;20258;-54
2020/12/30 11:06:06;;;;;;;6.80;4.10;;;;;;;;;;5053178;28;20250;-54
2020/12/30 11:08:34;;;;;;;6.47;4.07;;;;;;;;;;5053070;28;20259;-54
2020/12/30 11:11:01;;;;;;;9.10;5.23;;;;;;;;;;5053056;28;20369;-54
2020/12/30 11:13:28;;;;;;;8.17;5.00;;;;;;;;;;5052982;28;20262;-54
2020/12/30 11:15:55;;;;;;;6.63;4.93;;;;;;;;;;5053076;28;20289;-54
2020/12/30 11:18:22;;;;;;;7.77;3.87;;;;;;;;;;5052895;28;20252;-54
2020/12/30 11:20:48;;;;;;;8.73;4.77;;;;;;;;;;5053022;28;20254;-54
2020/12/30 11:23:16;;;;;;;8.17;5.07;;;;;;;;;;5052419;28;20254;-54
2020/12/30 11:25:43;;;;;;;8.97;5.40;;;;;;;;;;5052371;28;20304;-54
2020/12/30 11:28:10;;;;;;;8.63;5.03;;;;;;;;;;5052771;28;20250;-54
2020/12/30 11:30:37;;;;;;;7.60;5.17;;;;;;;;;;5052636;28;20281;-54
2020/12/30 11:33:04;;;;;;;8.37;5.20;;;;;;;;;;5052744;28;20613;-54
2020/12/30 11:35:31;;;;;;;8.53;4.80;;;;;;;;;;5052787;28;20258;-54
2020/12/30 11:37:58;;;;;;;7.83;4.80;;;;;;;;;;5052696;28;20660;-54
2020/12/30 11:40:26;;;;;;;8.53;4.97;;;;;;;;;;5052697;28;20262;-54
2020/12/30 11:42:54;;;;;;;10.50;5.37;;;;;;;;;;5052766;28;20612;-54
2020/12/30 11:45:20;;;;;;;7.17;4.63;;;;;;;;;;5052718;28;20258;-54
2020/12/30 11:47:48;;;;;;;10.57;5.23;;;;;;;;;;5052454;28;20253;-54
2020/12/30 11:50:14;;;;;;;8.70;4.73;;;;;;;;;;5052428;28;20289;-54
2020/12/30 11:52:44;;;;;;;8.57;4.83;;;;;;;;;;5052521;28;20579;-54
2020/12/30 11:55:11;;;;;;;7.33;5.10;;;;;;;;;;5052526;28;20297;-54
2020/12/30 11:57:38;;;;;;;7.87;5.67;;;;;;;;;;5052486;28;20333;-54
2020/12/30 12:00:09;;;;;;;8.00;4.50;;;;;;;;;;5052555;28;20249;-54
2020/12/30 12:02:35;;;;;;;9.90;5.07;;;;;;;;;;5052450;28;20320;-54
2020/12/30 12:05:03;;;;;;;10.67;5.50;;;;;;;;;;5052775;28;20264;-54
2020/12/30 12:07:30;;;;;;;8.37;5.43;;;;;;;;;;5052440;28;20254;-54
2020/12/30 12:09:57;;;;;;;7.23;3.93;;;;;;;;;;5052301;28;20669;-54
2020/12/30 12:12:24;;;;;;;9.53;5.30;;;;;;;;;;5052338;28;20790;-54
2020/12/30 12:14:51;;;;;;;8.50;4.83;;;;;;;;;;5052356;28;20277;-54
2020/12/30 12:17:17;;;;;;;8.07;5.07;;;;;;;;;;5052275;28;20257;-54
2020/12/30 12:19:44;;;;;;;9.57;5.50;;;;;;;;;;5052256;28;20757;-54
2020/12/30 12:22:13;;;;;;;11.60;5.30;;;;;;;;;;5052230;28;20246;-54
2020/12/30 12:24:40;;;;;;;7.83;4.87;;;;;;;;;;5052380;28;20289;-54
2020/12/30 12:27:07;;;;;;;9.87;5.90;;;;;;;;;;5052198;28;20674;-54
2020/12/30 12:29:36;;;;;;;9.40;5.60;;;;;;;;;;5052090;28;20278;-54
2020/12/30 12:32:03;;;;;;;12.87;5.33;;;;;;;;;;5052071;28;20305;-54
2020/12/30 12:34:30;;;;;;;10.37;5.37;;;;;;;;;;5034412;28;20823;-54
2020/12/30 12:37:03;;;;;;;8.60;5.47;;;;;;;;;;5055537;28;20614;-54
2020/12/30 12:39:30;;;;;;;11.10;6.00;;;;;;;;;;5055914;28;20725;-54
2020/12/30 12:41:57;;;;;;;8.93;5.33;;;;;;;;;;5055827;28;20316;-54
2020/12/30 12:44:24;;;;;;;11.27;5.83;;;;;;;;;;5055931;28;20253;-54
2020/12/30 12:46:51;;;;;;;11.43;6.30;;;;;;;;;;5055719;28;20254;-54
2020/12/30 12:49:18;;;;;;;11.70;5.57;;;;;;;;;;5055558;28;20605;-54
2020/12/30 12:51:55;;;;;;;11.97;6.17;;;;;;;;;;5055676;28;20262;-54
2020/12/30 12:54:22;;;;;;;10.83;5.73;;;;;;;;;;5055766;28;20265;-54
2020/12/30 12:56:55;;;;;;;11.20;5.40;;;;;;;;;;5055561;28;20610;-54
2020/12/30 12:59:21;;;;;;;8.90;6.17;;;;;;;;;;5055520;28;20265;-54
2020/12/30 13:01:48;;;;;;;12.27;6.17;;;;;;;;;;5055523;28;20276;-54
2020/12/30 13:04:15;;;;;;;12.80;6.63;;;;;;;;;;5055571;28;20332;-54
2020/12/30 13:06:42;;;;;;;8.90;5.67;;;;;;;;;;5055490;28;20285;-54
2020/12/30 13:09:09;;;;;;;13.57;6.77;;;;;;;;;;5055343;28;20337;-54
2020/12/30 13:11:41;;;;;;;14.47;6.77;;;;;;;;;;5055354;28;20296;-54
2020/12/30 13:14:08;;;;;;;18.67;6.03;;;;;;;;;;5055240;28;20315;-54
2020/12/30 13:16:35;;;;;;;11.00;6.17;;;;;;;;;;5055498;28;20258;-53
2020/12/30 13:19:02;;;;;;;19.73;7.10;;;;;;;;;;5055215;28;20643;-54
2020/12/30 13:21:33;;;;;;;14.20;8.73;;;;;;;;;;5055209;28;20254;-54
2020/12/30 13:24:00;;;;;;;11.50;7.27;;;;;;;;;;5055121;28;20284;-54
2020/12/30 13:26:27;;;;;;;14.17;7.67;;;;;;;;;;5055244;28;20254;-56
2020/12/30 13:28:54;;;;;;;16.90;7.30;;;;;;;;;;5054972;28;20250;-54
2020/12/30 13:31:21;;;;;;;11.93;6.20;;;;;;;;;;5054895;28;20301;-54
2020/12/30 13:33:47;;;;;;;12.13;6.97;;;;;;;;;;5054813;28;20312;-54
2020/12/30 13:36:19;;;;;;;12.60;6.07;;;;;;;;;;5054764;28;20689;-54
2020/12/30 13:38:45;;;;;;;14.10;7.67;;;;;;;;;;5054716;28;20285;-54
2020/12/30 13:41:12;;;;;;;15.90;7.50;;;;;;;;;;5054660;28;20262;-54
2020/12/30 13:43:39;;;;;;;11.27;7.73;;;;;;;;;;5055140;28;20256;-54
2020/12/30 13:46:08;;;;;;;16.20;9.40;;;;;;;;;;5054568;28;20258;-54
2020/12/30 13:48:35;;;;;;;11.07;6.70;;;;;;;;;;5053732;28;20308;-53
2020/12/30 13:51:02;;;;;;;10.83;6.63;;;;;;;;;;5054509;28;20286;-54
2020/12/30 13:53:29;;;;;;;14.73;8.70;;;;;;;;;;5054507;28;20345;-54
2020/12/30 13:55:55;;;;;;;19.20;9.90;;;;;;;;;;5054539;28;20321;-54
2020/12/30 13:58:22;;;;;;;19.73;9.43;;;;;;;;;;5054413;28;20254;-54
2020/12/30 14:00:49;;;;;;;17.60;9.77;;;;;;;;;;5054443;28;20258;-54
2020/12/30 14:03:16;;;;;;;18.83;9.57;;;;;;;;;;5054280;28;20254;-54
2020/12/30 14:05:42;;;;;;;15.07;8.20;;;;;;;;;;5054209;28;20284;-54
2020/12/30 14:08:09;;;;;;;16.43;7.93;;;;;;;;;;5054175;28;20246;-54
2020/12/30 14:10:37;;;;;;;12.07;7.70;;;;;;;;;;5054051;28;20286;-54
2020/12/30 14:13:04;;;;;;;13.17;7.43;;;;;;;;;;5054232;28;20254;-54
2020/12/30 14:15:31;;;;;;;17.97;7.23;;;;;;;;;;5054062;28;20260;-54
2020/12/30 14:17:57;;;;;;;13.67;7.43;;;;;;;;;;5054033;28;20273;-54
2020/12/30 14:20:24;;;;;;;10.10;6.87;;;;;;;;;;5054103;28;20258;-55
2020/12/30 14:22:51;;;;;;;16.57;8.83;;;;;;;;;;5053857;28;20334;-54
2020/12/30 14:25:18;;;;;;;16.10;8.33;;;;;;;;;;5053895;28;20262;-54
2020/12/30 14:27:45;;;;;;;14.20;8.90;;;;;;;;;;5053925;28;20268;-57
2020/12/30 14:30:11;;;;;;;14.07;8.80;;;;;;;;;;5053710;28;20708;-57
2020/12/30 14:32:38;;;;;;;20.03;8.30;;;;;;;;;;5053900;28;20278;-57
2020/12/30 14:35:11;;;;;;;15.23;7.50;;;;;;;;;;5053560;28;20258;-57
2020/12/30 14:37:38;;;;;;;13.07;7.97;;;;;;;;;;5053630;28;20266;-57
2020/12/30 14:40:06;;;;;;;11.87;6.57;;;;;;;;;;5053685;28;20262;-57
2020/12/30 14:42:33;;;;;;;12.80;6.73;;;;;;;;;;5053502;28;20605;-57
2020/12/30 14:45:00;;;;;;;20.67;7.50;;;;;;;;;;5053498;28;20250;-57